Time;durP1;ratioP1;P1;durP2;ratioP2;P2;SDS_P1;SDS_P2;PMS_P1;PMS_P2;Temp;Humidity;BMP_temperature;BMP_pressure;BME280_temperature;BME280_humidity;BME280_pressure;Samples;Min_cycle;Max_cycle;Signal;HPM_P1;HPM_P2
2022/12/08 00:01:26;;;;;;;11.60;10.40;;;2.40;99.90;;;;;;6122240;23;20206;-74
2022/12/08 00:03:54;;;;;;;12.77;11.10;;;2.40;99.90;;;;;;6120316;23;20197;-74
2022/12/08 00:09:23;;;;;;;10.85;9.75;;;2.40;99.90;;;;;;6120588;23;20192;-74
2022/12/08 00:11:53;;;;;;;11.82;10.13;;;2.40;99.90;;;;;;6117874;23;20273;-74
2022/12/08 00:14:24;;;;;;;11.32;9.32;;;2.40;99.90;;;;;;6096036;23;20295;-74
2022/12/08 00:16:52;;;;;;;10.55;9.45;;;2.40;99.90;;;;;;6117934;23;20341;-74
2022/12/08 00:19:21;;;;;;;10.45;9.00;;;2.40;99.90;;;;;;6118505;23;20198;-74
2022/12/08 00:21:48;;;;;;;8.88;7.97;;;2.40;99.90;;;;;;6116734;23;20207;-76
2022/12/08 00:24:15;;;;;;;10.43;9.32;;;2.40;99.90;;;;;;6116799;23;20249;-75
2022/12/08 00:26:42;;;;;;;11.23;8.88;;;2.40;99.90;;;;;;6107680;23;20366;-74
2022/12/08 00:29:09;;;;;;;9.75;8.80;;;2.40;99.90;;;;;;6117373;23;20195;-74
2022/12/08 00:31:38;;;;;;;8.38;7.50;;;2.40;99.90;;;;;;6115968;23;20214;-75
2022/12/08 00:34:06;;;;;;;8.55;7.28;;;2.40;99.90;;;;;;6121807;23;20279;-75
2022/12/08 00:36:33;;;;;;;9.20;8.30;;;2.50;99.90;;;;;;6117391;23;20192;-74
2022/12/08 00:39:00;;;;;;;8.57;7.70;;;2.50;99.90;;;;;;6111319;23;20658;-74
2022/12/08 00:44:15;;;;;;;9.55;8.55;;;2.50;99.90;;;;;;6117896;23;20204;-74
2022/12/08 00:46:43;;;;;;;9.75;8.75;;;2.50;99.90;;;;;;6116576;23;20191;-74
2022/12/08 00:49:10;;;;;;;9.95;8.95;;;2.50;99.90;;;;;;6118004;23;20196;-74
2022/12/08 00:51:38;;;;;;;9.48;8.48;;;2.50;99.90;;;;;;6116512;23;20196;-74
2022/12/08 00:54:06;;;;;;;9.18;8.27;;;2.40;99.90;;;;;;6118253;23;20232;-74
2022/12/08 00:56:35;;;;;;;10.25;9.10;;;2.40;99.90;;;;;;6115789;23;20365;-74
2022/12/08 00:59:03;;;;;;;10.02;9.02;;;2.40;99.90;;;;;;6115755;23;20362;-74
2022/12/08 01:01:30;;;;;;;10.68;9.57;;;2.40;99.90;;;;;;6115341;23;20555;-74
2022/12/08 01:04:03;;;;;;;11.40;9.90;;;2.30;99.90;;;;;;6115656;23;20267;-74
2022/12/08 01:06:30;;;;;;;10.88;9.30;;;2.30;99.90;;;;;;6111912;23;20189;-74
2022/12/08 01:08:57;;;;;;;10.00;9.02;;;2.30;99.90;;;;;;6117074;23;20221;-74
2022/12/08 01:11:24;;;;;;;10.70;9.30;;;2.20;99.90;;;;;;6117191;23;20226;-74
2022/12/08 01:13:51;;;;;;;10.52;9.25;;;2.20;99.90;;;;;;6116405;23;20609;-74
2022/12/08 01:16:20;;;;;;;10.77;9.68;;;2.10;99.90;;;;;;6117366;23;20271;-74
2022/12/08 01:18:47;;;;;;;10.30;8.68;;;2.10;99.90;;;;;;6106116;23;20255;-74
2022/12/08 01:21:17;;;;;;;11.30;9.35;;;2.10;99.90;;;;;;6118091;23;20311;-75
2022/12/08 01:23:44;;;;;;;11.20;9.50;;;2.00;99.90;;;;;;6118170;23;20280;-74
2022/12/08 01:26:13;;;;;;;9.30;8.15;;;2.00;99.90;;;;;;6118473;23;20241;-74
2022/12/08 01:28:41;;;;;;;10.68;9.35;;;2.00;99.90;;;;;;6116783;23;20272;-74
2022/12/08 01:31:12;;;;;;;9.05;8.00;;;1.90;99.90;;;;;;6119220;23;20275;-74
2022/12/08 01:33:39;;;;;;;10.07;8.95;;;1.90;99.90;;;;;;6117540;23;20670;-74
2022/12/08 01:36:07;;;;;;;10.38;9.27;;;1.80;99.90;;;;;;6118195;23;20231;-74
2022/12/08 01:38:36;;;;;;;10.00;9.00;;;1.80;99.90;;;;;;6107481;23;20334;-75
2022/12/08 01:41:03;;;;;;;10.30;8.90;;;1.80;99.90;;;;;;6116933;23;20201;-75
2022/12/08 01:43:56;;;;;;;10.07;8.30;;;1.70;99.90;;;;;;6117475;23;20310;-74
2022/12/08 01:46:24;;;;;;;8.50;7.50;;;1.70;99.90;;;;;;6114526;23;20597;-74
2022/12/08 01:48:56;;;;;;;7.53;6.65;;;1.80;99.90;;;;;;6116848;23;20215;-74
2022/12/08 01:51:24;;;;;;;8.07;6.97;;;1.80;99.90;;;;;;6117538;23;20275;-74
2022/12/08 01:53:53;;;;;;;7.53;6.50;;;1.80;99.90;;;;;;6117839;23;20195;-74
2022/12/08 01:56:27;;;;;;;9.13;7.80;;;1.90;99.90;;;;;;6118415;23;20576;-74
2022/12/08 01:58:55;;;;;;;8.45;7.32;;;1.90;99.90;;;;;;6115672;23;20281;-74
2022/12/08 02:01:23;;;;;;;5.88;5.25;;;1.90;99.90;;;;;;6118418;23;20604;-74
2022/12/08 02:03:55;;;;;;;7.88;6.40;;;2.00;99.90;;;;;;6117038;23;20603;-75
2022/12/08 02:06:22;;;;;;;6.70;6.00;;;2.00;99.90;;;;;;6111974;23;20291;-75
2022/12/08 02:08:50;;;;;;;7.07;5.97;;;2.00;99.90;;;;;;6116817;23;20614;-74
2022/12/08 02:11:18;;;;;;;6.30;5.63;;;2.10;99.90;;;;;;6115802;23;20199;-74
2022/12/08 02:13:47;;;;;;;5.75;5.10;;;2.10;99.90;;;;;;6120399;23;20191;-75
2022/12/08 02:16:27;;;;;;;8.15;6.25;;;2.10;99.90;;;;;;6119315;23;20693;-75
2022/12/08 02:19:03;;;;;;;7.35;6.03;;;2.10;99.90;;;;;;6116951;23;20192;-75
2022/12/08 02:21:37;;;;;;;9.18;8.15;;;2.10;99.90;;;;;;6124275;23;20231;-75
2022/12/08 02:24:13;;;;;;;9.98;8.18;;;2.00;99.90;;;;;;6094452;23;20227;-74
2022/12/08 02:27:19;;;;;;;10.45;8.15;;;1.80;99.90;;;;;;6115976;23;20286;-75
2022/12/08 02:30:08;;;;;;;11.27;8.57;;;1.60;99.90;;;;;;6117149;23;20218;-74
2022/12/08 02:33:16;;;;;;;12.48;9.43;;;1.70;99.90;;;;;;6116436;23;20200;-74
2022/12/08 02:35:56;;;;;;;10.50;9.07;;;1.30;99.90;;;;;;6108257;23;20266;-75
2022/12/08 02:38:36;;;;;;;10.02;8.98;;;1.20;99.90;;;;;;6119231;23;20270;-74
2022/12/08 02:41:11;;;;;;;10.95;9.57;;;1.20;99.90;;;;;;6108042;23;20279;-75
2022/12/08 02:43:44;;;;;;;9.77;8.77;;;1.00;99.90;;;;;;6117890;23;20195;-75
2022/12/08 02:46:15;;;;;;;10.07;9.07;;;0.90;99.90;;;;;;6114162;23;20728;-75
2022/12/08 02:48:43;;;;;;;10.15;8.57;;;0.80;99.90;;;;;;6111387;23;20278;-75
2022/12/08 02:51:11;;;;;;;11.68;9.93;;;0.80;99.90;;;;;;6115190;23;20217;-74
2022/12/08 02:53:39;;;;;;;10.90;9.60;;;0.70;99.90;;;;;;6114992;23;20198;-74
2022/12/08 02:56:16;;;;;;;12.00;9.60;;;0.80;99.90;;;;;;6117976;23;20199;-75
2022/12/08 02:59:00;;;;;;;12.57;9.45;;;0.80;99.90;;;;;;6115494;23;20218;-75
2022/12/08 03:01:52;;;;;;;12.90;9.85;;;0.80;99.90;;;;;;6121617;23;20693;-74
2022/12/08 03:04:28;;;;;;;11.10;9.85;;;0.90;99.90;;;;;;6115186;23;20222;-74
2022/12/08 03:07:04;;;;;;;11.80;10.10;;;0.90;99.90;;;;;;6116693;23;20290;-75
2022/12/08 03:09:38;;;;;;;11.00;9.77;;;0.90;99.90;;;;;;6116599;23;20274;-74
2022/12/08 03:12:13;;;;;;;10.35;8.77;;;0.90;99.90;;;;;;6118372;23;20200;-74
2022/12/08 03:14:45;;;;;;;11.00;8.85;;;1.00;99.90;;;;;;6117633;23;20301;-74
2022/12/08 03:17:13;;;;;;;10.65;8.48;;;1.10;99.90;;;;;;6108656;23;20207;-75
2022/12/08 03:19:43;;;;;;;10.23;8.40;;;1.10;99.90;;;;;;6118280;23;20207;-74
2022/12/08 03:22:13;;;;;;;12.02;9.15;;;1.00;99.90;;;;;;6105668;23;20245;-74
2022/12/08 03:24:43;;;;;;;9.70;8.70;;;1.30;99.90;;;;;;6117230;23;20601;-74
2022/12/08 03:27:15;;;;;;;10.30;8.45;;;1.00;99.90;;;;;;6115954;23;20364;-74
2022/12/08 03:29:43;;;;;;;11.20;9.93;;;1.10;99.90;;;;;;6118689;23;20275;-74
2022/12/08 03:32:19;;;;;;;11.45;10.25;;;0.80;99.90;;;;;;6106462;23;20187;-74
2022/12/08 03:34:49;;;;;;;11.52;9.70;;;0.80;99.90;;;;;;6121783;23;20234;-75
2022/12/08 03:37:18;;;;;;;12.07;9.90;;;0.80;99.90;;;;;;6116179;23;20196;-75
2022/12/08 03:39:45;;;;;;;10.60;9.18;;;0.80;99.90;;;;;;6115288;23;20196;-75
2022/12/08 03:42:12;;;;;;;13.40;9.88;;;0.80;99.90;;;;;;6114714;23;20651;-74
2022/12/08 03:44:39;;;;;;;10.52;8.95;;;0.80;99.90;;;;;;6116965;23;20195;-75
2022/12/08 03:47:06;;;;;;;14.20;9.82;;;0.70;99.90;;;;;;6123516;23;20254;-74
2022/12/08 03:49:35;;;;;;;10.45;9.35;;;0.60;99.90;;;;;;6122908;23;20350;-75
2022/12/08 03:52:02;;;;;;;13.27;9.85;;;0.60;99.90;;;;;;6124542;23;20279;-75
2022/12/08 03:54:30;;;;;;;11.77;9.48;;;0.40;99.90;;;;;;6119532;23;20196;-75
2022/12/08 03:56:58;;;;;;;12.02;9.77;;;0.40;99.90;;;;;;6113612;23;20277;-74
2022/12/08 03:59:25;;;;;;;11.55;10.35;;;0.40;99.90;;;;;;6117001;23;20644;-74
2022/12/08 04:01:52;;;;;;;13.65;10.57;;;0.40;99.90;;;;;;6116247;23;20672;-74
2022/12/08 04:04:21;;;;;;;12.70;11.07;;;0.40;99.90;;;;;;6113687;23;20599;-74
2022/12/08 04:06:49;;;;;;;10.95;9.32;;;0.40;99.90;;;;;;6112756;23;20231;-74
2022/12/08 04:09:16;;;;;;;11.30;10.05;;;0.30;99.90;;;;;;6117535;23;20191;-74
2022/12/08 04:11:45;;;;;;;13.32;11.05;;;0.30;99.90;;;;;;6130383;23;20247;-74
2022/12/08 04:14:12;;;;;;;12.13;10.80;;;0.30;99.90;;;;;;6115476;23;20191;-75
2022/12/08 04:16:40;;;;;;;12.32;9.70;;;0.30;99.90;;;;;;6117810;23;20937;-75
2022/12/08 04:19:08;;;;;;;11.52;10.32;;;0.30;99.90;;;;;;6117161;23;20270;-74
2022/12/08 04:21:35;;;;;;;11.88;10.68;;;0.20;99.90;;;;;;6116797;23;20270;-74
2022/12/08 04:24:02;;;;;;;11.10;9.82;;;0.20;99.90;;;;;;6123267;23;20191;-75
2022/12/08 04:26:29;;;;;;;13.20;10.32;;;0.20;99.90;;;;;;6116869;23;20216;-75
2022/12/08 04:28:58;;;;;;;10.98;9.82;;;0.10;99.90;;;;;;6108990;23;20621;-75
2022/12/08 04:31:25;;;;;;;11.73;9.90;;;0.20;99.90;;;;;;6115821;23;20199;-75
2022/12/08 04:33:52;;;;;;;12.23;10.57;;;0.10;99.90;;;;;;6114392;23;20203;-74
2022/12/08 04:36:20;;;;;;;10.75;9.60;;;0.10;99.90;;;;;;6109829;23;20191;-74
2022/12/08 04:38:47;;;;;;;11.95;10.52;;;0.10;99.90;;;;;;6116291;23;20633;-75
2022/12/08 04:41:14;;;;;;;11.07;9.85;;;0.00;99.90;;;;;;6116931;23;20207;-75
2022/12/08 04:43:43;;;;;;;12.30;10.85;;;0.00;99.90;;;;;;6114317;23;20213;-74
2022/12/08 04:46:11;;;;;;;12.63;10.65;;;0.00;99.90;;;;;;6115553;23;20245;-74
2022/12/08 04:48:40;;;;;;;21.55;14.00;;;0.00;99.90;;;;;;6116690;23;20211;-74
2022/12/08 04:51:12;;;;;;;14.88;11.00;;;0.00;99.90;;;;;;6118248;23;20202;-74
2022/12/08 04:53:39;;;;;;;12.30;10.35;;;0.00;99.90;;;;;;6124371;23;20294;-74
2022/12/08 04:56:11;;;;;;;12.40;10.13;;;0.00;99.90;;;;;;6114463;23;20266;-74
2022/12/08 04:58:39;;;;;;;14.60;13.18;;;0.00;99.90;;;;;;6117454;23;20273;-74
2022/12/08 05:01:06;;;;;;;12.05;10.15;;;-0.10;99.90;;;;;;6118949;23;20636;-74
2022/12/08 05:03:35;;;;;;;13.43;10.75;;;-0.10;99.90;;;;;;6117424;23;20195;-74
2022/12/08 05:06:05;;;;;;;14.05;11.45;;;-0.10;99.90;;;;;;6116877;23;20290;-74
2022/12/08 05:08:32;;;;;;;13.93;12.35;;;-0.20;99.90;;;;;;6116664;23;20196;-74
2022/12/08 05:11:04;;;;;;;14.52;9.60;;;-0.20;99.90;;;;;;6118185;23;20198;-74
2022/12/08 05:13:31;;;;;;;14.23;10.65;;;-0.20;99.90;;;;;;6118894;23;20274;-74
2022/12/08 05:16:09;;;;;;;13.60;10.05;;;-0.20;99.90;;;;;;6116542;23;20197;-73
2022/12/08 05:18:39;;;;;;;14.27;11.88;;;-0.20;99.90;;;;;;6114825;23;20695;-74
2022/12/08 05:21:07;;;;;;;13.38;11.93;;;-0.20;99.90;;;;;;6118214;23;20230;-74
2022/12/08 05:23:34;;;;;;;14.15;11.18;;;-0.30;99.90;;;;;;6115890;23;20202;-74
2022/12/08 05:26:01;;;;;;;15.95;12.65;;;-0.30;99.90;;;;;;6117037;23;20295;-74
2022/12/08 05:28:28;;;;;;;13.77;11.60;;;-0.40;99.90;;;;;;6116747;23;20206;-74
2022/12/08 05:30:55;;;;;;;13.20;11.60;;;-0.40;99.90;;;;;;6117313;23;20283;-74
2022/12/08 05:33:23;;;;;;;15.30;12.00;;;-0.40;99.90;;;;;;6116990;23;20219;-74
2022/12/08 05:35:51;;;;;;;15.65;11.45;;;-0.40;99.90;;;;;;6116359;23;20279;-74
2022/12/08 05:38:19;;;;;;;14.48;11.48;;;-0.40;99.90;;;;;;6114597;23;20250;-77
2022/12/08 05:40:50;;;;;;;14.07;11.18;;;-0.40;99.90;;;;;;6107668;23;20250;-78
2022/12/08 05:43:21;;;;;;;16.85;12.20;;;-0.40;99.90;;;;;;6107736;23;20645;-77
2022/12/08 05:45:48;;;;;;;13.48;12.07;;;-0.40;99.90;;;;;;6110302;23;20548;-76
2022/12/08 05:48:15;;;;;;;18.90;12.02;;;-0.40;99.90;;;;;;6115444;23;20308;-77
2022/12/08 05:50:48;;;;;;;17.75;13.55;;;-0.40;99.90;;;;;;6113885;23;20656;-76
2022/12/08 05:53:18;;;;;;;14.98;12.07;;;-0.40;99.90;;;;;;6113787;23;20563;-77
2022/12/08 05:55:46;;;;;;;17.88;13.05;;;-0.40;99.90;;;;;;6114596;23;20195;-75
2022/12/08 05:58:15;;;;;;;14.55;11.48;;;-0.40;99.90;;;;;;6101181;23;20580;-75
2022/12/08 06:00:42;;;;;;;15.32;13.32;;;-0.40;99.90;;;;;;6116158;23;20307;-75
2022/12/08 06:03:11;;;;;;;16.48;13.45;;;-0.40;99.90;;;;;;6117221;23;20672;-75
2022/12/08 06:05:38;;;;;;;15.32;12.30;;;-0.30;99.90;;;;;;6116382;23;20194;-75
2022/12/08 06:08:06;;;;;;;16.92;13.80;;;-0.30;99.90;;;;;;6117198;23;20337;-75
2022/12/08 06:10:35;;;;;;;16.88;13.77;;;-0.30;99.90;;;;;;6112894;23;20219;-77
2022/12/08 06:13:03;;;;;;;17.20;13.27;;;-0.30;99.90;;;;;;6102080;23;20207;-77
2022/12/08 06:15:30;;;;;;;17.00;13.10;;;-0.20;99.90;;;;;;6114260;23;20223;-77
2022/12/08 06:17:57;;;;;;;14.60;12.85;;;-0.20;99.90;;;;;;6114593;23;20226;-76
2022/12/08 06:20:24;;;;;;;18.27;13.15;;;-0.20;99.90;;;;;;6106531;23;20245;-77
2022/12/08 06:22:51;;;;;;;17.10;12.65;;;-0.20;99.90;;;;;;6111082;23;20187;-77
2022/12/08 06:25:19;;;;;;;16.55;13.10;;;-0.20;99.90;;;;;;6113968;23;20192;-76
2022/12/08 06:27:48;;;;;;;16.00;13.32;;;-0.30;99.90;;;;;;6117648;23;20533;-76
2022/12/08 06:30:17;;;;;;;17.83;14.45;;;-0.30;99.90;;;;;;6116961;23;20259;-76
2022/12/08 06:32:45;;;;;;;17.23;14.77;;;-0.30;99.90;;;;;;6117032;23;20194;-76
2022/12/08 06:35:12;;;;;;;17.17;14.38;;;-0.30;99.90;;;;;;6117439;23;20229;-76
2022/12/08 06:37:39;;;;;;;18.63;13.95;;;-0.30;99.90;;;;;;6118751;23;20215;-76
2022/12/08 06:40:07;;;;;;;15.07;13.05;;;-0.30;99.90;;;;;;6117668;23;20194;-77
2022/12/08 06:42:45;;;;;;;17.85;13.55;;;-0.30;99.90;;;;;;6104217;23;20210;-76
2022/12/08 06:45:16;;;;;;;18.73;13.85;;;-0.30;99.90;;;;;;6115160;23;20266;-76
2022/12/08 06:47:44;;;;;;;17.33;13.63;;;-0.20;99.90;;;;;;6118526;23;20668;-76
2022/12/08 06:50:13;;;;;;;15.43;13.77;;;-0.20;99.90;;;;;;6113803;23;20187;-76
2022/12/08 06:52:41;;;;;;;17.75;13.50;;;-0.20;99.90;;;;;;6115020;23;20188;-76
2022/12/08 06:55:09;;;;;;;16.80;13.93;;;-0.30;99.90;;;;;;6109658;23;20271;-77
2022/12/08 06:57:36;;;;;;;16.73;14.98;;;-0.30;99.90;;;;;;6117286;23;20188;-77
2022/12/08 07:00:05;;;;;;;18.70;13.90;;;-0.30;99.90;;;;;;6116551;23;20202;-77
2022/12/08 07:02:33;;;;;;;18.38;13.38;;;-0.20;99.90;;;;;;6100329;23;20245;-77
2022/12/08 07:05:01;;;;;;;19.15;14.18;;;-0.20;99.90;;;;;;6115136;23;20195;-77
2022/12/08 07:07:29;;;;;;;16.77;13.00;;;-0.30;99.90;;;;;;6114423;23;20302;-77
2022/12/08 07:09:57;;;;;;;17.05;13.23;;;-0.30;99.90;;;;;;6116102;23;20589;-77
2022/12/08 07:12:23;;;;;;;16.10;13.10;;;-0.30;99.90;;;;;;6110154;23;20183;-77
2022/12/08 07:14:51;;;;;;;15.05;12.85;;;-0.30;99.90;;;;;;6114947;23;20602;-77
2022/12/08 07:17:18;;;;;;;18.42;14.85;;;-0.30;99.90;;;;;;6100542;23;20281;-77
2022/12/08 07:19:46;;;;;;;18.30;14.27;;;-0.30;99.90;;;;;;6111456;23;20215;-78
2022/12/08 07:22:14;;;;;;;18.60;13.35;;;-0.30;99.90;;;;;;6117499;23;20195;-77
2022/12/08 07:24:40;;;;;;;19.30;13.75;;;-0.30;99.90;;;;;;6117034;23;20191;-77
2022/12/08 07:27:08;;;;;;;20.08;14.68;;;-0.30;99.90;;;;;;6120558;23;20219;-77
2022/12/08 07:29:35;;;;;;;19.65;14.50;;;-0.30;99.90;;;;;;6101753;23;20274;-77
2022/12/08 07:32:02;;;;;;;17.05;14.48;;;-0.30;99.90;;;;;;6088191;23;20252;-78
2022/12/08 07:34:29;;;;;;;17.15;13.25;;;-0.40;99.90;;;;;;6117447;23;20191;-78
2022/12/08 07:36:59;;;;;;;17.17;12.82;;;-0.40;99.90;;;;;;6115311;23;20179;-78
2022/12/08 07:39:26;;;;;;;21.70;14.55;;;-0.40;99.90;;;;;;6116073;23;20218;-78
2022/12/08 07:41:53;;;;;;;18.60;13.95;;;-0.40;99.90;;;;;;6115842;23;20238;-78
2022/12/08 07:44:21;;;;;;;18.85;14.60;;;-0.40;99.90;;;;;;6114122;23;20283;-76
2022/12/08 07:46:48;;;;;;;18.13;14.70;;;-0.30;99.90;;;;;;6113732;23;20207;-75
2022/12/08 07:49:15;;;;;;;18.92;14.50;;;-0.30;99.90;;;;;;6116557;23;20756;-76
2022/12/08 07:51:42;;;;;;;17.08;14.20;;;-0.30;99.90;;;;;;6117083;23;20267;-77
2022/12/08 07:54:13;;;;;;;19.35;15.25;;;-0.20;99.90;;;;;;6116704;23;20342;-77
2022/12/08 07:56:40;;;;;;;19.70;13.02;;;-0.20;99.90;;;;;;6110962;23;20181;-77
2022/12/08 07:59:07;;;;;;;18.77;15.57;;;-0.20;99.90;;;;;;6117961;23;20294;-76
2022/12/08 08:01:35;;;;;;;18.30;13.98;;;-0.10;99.90;;;;;;6117273;23;20187;-77
2022/12/08 08:04:05;;;;;;;18.50;14.52;;;-0.10;99.90;;;;;;6117174;23;20183;-76
2022/12/08 08:06:33;;;;;;;19.15;13.63;;;-0.10;99.90;;;;;;6105768;23;20194;-76
2022/12/08 08:09:01;;;;;;;20.73;15.43;;;0.00;99.90;;;;;;6115284;23;20188;-77
2022/12/08 08:11:29;;;;;;;16.08;12.90;;;0.00;99.90;;;;;;6137983;23;20192;-77
2022/12/08 08:13:57;;;;;;;18.40;13.95;;;-0.10;99.90;;;;;;6115050;23;20253;-82
2022/12/08 08:16:34;;;;;;;16.73;13.20;;;-0.10;99.90;;;;;;6116062;23;20196;-82
2022/12/08 08:19:01;;;;;;;16.45;13.20;;;0.00;99.90;;;;;;6109990;23;20287;-83
2022/12/08 08:21:28;;;;;;;19.63;14.02;;;0.00;99.90;;;;;;6118247;23;20215;-82
2022/12/08 08:23:55;;;;;;;17.83;12.75;;;0.10;99.90;;;;;;6112439;23;20253;-82
2022/12/08 08:26:22;;;;;;;19.38;14.55;;;0.10;99.90;;;;;;6114781;23;20188;-83
2022/12/08 08:28:53;;;;;;;15.80;13.32;;;0.20;99.90;;;;;;6112387;23;20275;-83
2022/12/08 08:31:25;;;;;;;19.02;13.30;;;0.30;99.90;;;;;;6112881;23;20191;-83
2022/12/08 08:33:52;;;;;;;17.90;13.52;;;0.40;99.90;;;;;;6115481;23;20191;-83
2022/12/08 08:36:20;;;;;;;18.48;12.52;;;0.40;99.90;;;;;;6113052;23;20279;-83
2022/12/08 08:38:48;;;;;;;16.98;12.98;;;0.40;99.90;;;;;;6109185;23;20289;-83
2022/12/08 08:41:15;;;;;;;14.05;12.05;;;0.50;99.90;;;;;;6115859;23;20641;-83
2022/12/08 08:43:42;;;;;;;16.55;13.00;;;0.50;99.90;;;;;;6117119;23;20210;-83
2022/12/08 08:46:15;;;;;;;20.98;12.70;;;0.60;99.90;;;;;;6115199;23;20192;-83
2022/12/08 08:48:42;;;;;;;15.23;13.30;;;0.60;99.90;;;;;;6114186;23;20211;-83
2022/12/08 08:51:11;;;;;;;15.25;12.45;;;0.70;99.90;;;;;;6118540;23;20218;-83
2022/12/08 08:53:39;;;;;;;15.68;11.60;;;1.00;99.90;;;;;;6118405;23;20282;-83
2022/12/08 08:56:11;;;;;;;13.23;10.77;;;1.40;99.90;;;;;;6119063;23;20264;-83
2022/12/08 08:58:38;;;;;;;12.90;11.30;;;2.00;99.90;;;;;;6116661;23;20687;-83
2022/12/08 09:01:05;;;;;;;13.10;11.70;;;2.60;99.90;;;;;;6118714;23;20221;-83
2022/12/08 09:03:34;;;;;;;12.85;10.68;;;3.00;99.90;;;;;;6108571;23;20199;-83
2022/12/08 09:06:01;;;;;;;14.38;11.48;;;3.30;99.90;;;;;;6115614;23;20202;-83
2022/12/08 09:08:29;;;;;;;12.18;9.70;;;3.60;99.90;;;;;;6114195;23;20266;-83
2022/12/08 09:10:56;;;;;;;12.43;11.13;;;3.80;99.90;;;;;;6118586;23;20267;-83
2022/12/08 09:13:23;;;;;;;11.60;10.48;;;3.60;99.90;;;;;;6108589;23;20727;-83
2022/12/08 09:15:51;;;;;;;13.52;10.32;;;3.50;99.90;;;;;;6117007;23;20257;-83
2022/12/08 09:18:21;;;;;;;10.77;9.50;;;3.90;99.90;;;;;;6117436;23;20262;-83
2022/12/08 09:20:49;;;;;;;10.57;9.60;;;3.70;99.90;;;;;;6118129;23;20207;-83
2022/12/08 09:23:16;;;;;;;11.10;9.55;;;3.80;99.90;;;;;;6116184;23;20213;-83
2022/12/08 09:25:45;;;;;;;13.60;9.88;;;4.10;99.90;;;;;;6113283;23;20262;-83
2022/12/08 09:28:12;;;;;;;11.13;10.05;;;4.40;99.90;;;;;;6112896;23;20238;-83
2022/12/08 09:30:39;;;;;;;10.05;8.85;;;4.80;99.90;;;;;;6117866;23;20649;-84
2022/12/08 09:33:07;;;;;;;11.05;9.98;;;4.90;99.90;;;;;;6105226;23;20210;-79
2022/12/08 09:35:34;;;;;;;11.07;9.98;;;5.30;99.90;;;;;;6117211;23;20197;-80
2022/12/08 09:38:02;;;;;;;12.13;9.30;;;5.60;99.90;;;;;;6114779;23;20202;-79
2022/12/08 09:40:36;;;;;;;10.52;9.25;;;6.10;99.90;;;;;;6115260;23;20656;-79
2022/12/08 09:43:09;;;;;;;11.00;9.85;;;6.30;99.90;;;;;;6086980;23;20344;-79
2022/12/08 09:45:38;;;;;;;10.35;9.05;;;6.10;99.90;;;;;;6109773;23;20621;-80
2022/12/08 09:48:09;;;;;;;9.50;8.60;;;6.40;99.90;;;;;;6113016;23;20318;-80
2022/12/08 09:50:40;;;;;;;9.93;8.98;;;6.70;99.90;;;;;;6114363;23;20209;-80
2022/12/08 09:53:15;;;;;;;9.90;9.00;;;7.00;99.90;;;;;;6118867;23;20205;-79
2022/12/08 09:55:47;;;;;;;9.77;8.77;;;6.30;99.90;;;;;;6117806;23;20244;-79
2022/12/08 09:58:25;;;;;;;11.73;9.05;;;5.90;99.90;;;;;;6114499;23;20217;-78
2022/12/08 10:00:53;;;;;;;9.57;8.63;;;6.10;99.90;;;;;;6111826;23;20255;-79
2022/12/08 10:03:23;;;;;;;8.90;8.10;;;6.40;99.90;;;;;;6112271;23;20220;-79
2022/12/08 10:05:57;;;;;;;10.77;9.70;;;6.60;99.90;;;;;;6112857;23;20561;-79
2022/12/08 10:08:35;;;;;;;10.30;9.23;;;6.70;99.90;;;;;;6114850;23;20209;-79
2022/12/08 10:11:11;;;;;;;9.50;8.60;;;6.60;99.90;;;;;;6110972;23;20190;-79
2022/12/08 10:13:46;;;;;;;9.90;9.00;;;6.30;99.90;;;;;;6111118;23;20277;-79
2022/12/08 10:16:21;;;;;;;12.32;10.05;;;6.40;99.90;;;;;;6108169;23;20190;-79
2022/12/08 10:18:56;;;;;;;10.40;8.50;;;6.60;99.90;;;;;;6117848;23;20182;-77
2022/12/08 10:21:27;;;;;;;12.07;9.13;;;6.80;99.90;;;;;;6115679;23;20196;-81
2022/12/08 10:24:01;;;;;;;10.20;8.70;;;6.90;99.90;;;;;;6114549;23;20198;-81
2022/12/08 10:26:31;;;;;;;10.77;9.40;;;6.90;99.90;;;;;;6114965;23;20237;-81
2022/12/08 10:29:01;;;;;;;9.10;8.20;;;6.80;99.90;;;;;;6115752;23;20284;-81
2022/12/08 10:31:30;;;;;;;9.95;8.23;;;6.80;99.90;;;;;;6116440;23;20691;-81
2022/12/08 10:34:01;;;;;;;9.80;8.80;;;6.60;99.90;;;;;;6113064;23;20209;-81
2022/12/08 10:36:48;;;;;;;9.15;8.25;;;6.20;99.90;;;;;;6117487;23;20391;-81
2022/12/08 10:39:35;;;;;;;9.30;8.40;;;6.00;99.90;;;;;;6113216;23;20212;-81
2022/12/08 10:42:11;;;;;;;10.23;9.20;;;5.70;99.90;;;;;;6114463;23;20195;-81
2022/12/08 10:44:50;;;;;;;10.00;8.90;;;5.30;99.90;;;;;;6117840;23;20191;-80
2022/12/08 10:47:22;;;;;;;12.32;8.70;;;4.90;99.90;;;;;;6113768;23;20230;-81
2022/12/08 10:50:16;;;;;;;10.88;9.30;;;4.70;99.90;;;;;;6116574;23;20219;-80
2022/12/08 10:52:43;;;;;;;11.45;8.82;;;4.50;99.90;;;;;;6113519;23;20714;-80
2022/12/08 10:55:17;;;;;;;11.75;10.05;;;4.40;99.90;;;;;;6112618;23;20604;-81
2022/12/08 10:57:45;;;;;;;11.32;9.13;;;4.30;99.90;;;;;;6106979;23;20203;-81
2022/12/08 11:00:14;;;;;;;12.02;9.80;;;4.20;99.90;;;;;;6116561;23;20270;-81
2022/12/08 11:02:54;;;;;;;10.52;9.25;;;4.00;99.90;;;;;;6114360;23;20222;-81
2022/12/08 11:05:26;;;;;;;12.50;9.68;;;4.00;99.90;;;;;;6110013;23;20593;-81
2022/12/08 11:07:55;;;;;;;10.65;9.65;;;4.00;99.90;;;;;;6110137;23;20274;-81
2022/12/08 11:10:32;;;;;;;10.10;9.10;;;4.10;99.90;;;;;;6114337;23;20219;-81
2022/12/08 11:13:04;;;;;;;10.07;9.07;;;4.20;99.90;;;;;;6115433;23;20373;-81
2022/12/08 11:15:37;;;;;;;11.18;8.43;;;4.30;99.90;;;;;;6113077;23;20638;-81
2022/12/08 11:18:20;;;;;;;9.57;8.55;;;4.40;99.90;;;;;;6119819;23;20192;-81
2022/12/08 11:20:55;;;;;;;10.38;8.65;;;4.40;99.90;;;;;;6119130;23;20269;-80
2022/12/08 11:23:25;;;;;;;8.55;7.75;;;4.40;99.90;;;;;;6130252;23;20230;-80
2022/12/08 11:25:57;;;;;;;9.20;8.25;;;4.30;99.90;;;;;;6116504;23;20612;-80
2022/12/08 11:28:25;;;;;;;9.55;8.55;;;4.30;99.90;;;;;;6118175;23;20241;-80
2022/12/08 11:30:58;;;;;;;8.60;7.70;;;4.40;99.90;;;;;;6124427;23;20290;-81
2022/12/08 11:33:28;;;;;;;11.10;8.95;;;4.40;99.90;;;;;;6115506;23;20226;-81
2022/12/08 11:36:02;;;;;;;8.48;7.75;;;4.50;99.90;;;;;;6123934;23;20716;-81
2022/12/08 11:38:30;;;;;;;8.30;7.50;;;4.40;99.90;;;;;;6118290;23;20191;-81
2022/12/08 11:41:05;;;;;;;8.10;7.30;;;4.40;99.90;;;;;;6128571;23;20640;-81
2022/12/08 11:43:44;;;;;;;8.82;7.88;;;4.40;99.90;;;;;;6114562;23;20365;-80
2022/12/08 11:46:17;;;;;;;9.10;7.90;;;4.30;99.90;;;;;;6117715;23;20195;-80
2022/12/08 11:48:49;;;;;;;8.82;7.93;;;4.30;99.90;;;;;;6113622;23;20207;-80
2022/12/08 11:51:21;;;;;;;8.50;7.60;;;4.40;99.90;;;;;;6113050;23;20659;-82
2022/12/08 11:54:01;;;;;;;9.55;7.70;;;4.50;99.90;;;;;;6112357;23;20258;-79
2022/12/08 11:56:35;;;;;;;8.40;7.32;;;4.60;99.90;;;;;;6104638;23;20238;-79
2022/12/08 11:59:06;;;;;;;8.10;6.93;;;4.60;99.90;;;;;;6114404;23;20541;-79
2022/12/08 12:01:34;;;;;;;10.82;7.28;;;4.70;99.90;;;;;;6115738;23;20188;-79
2022/12/08 12:04:12;;;;;;;8.10;7.30;;;4.80;99.90;;;;;;6114680;23;20619;-79
2022/12/08 12:07:20;;;;;;;7.75;7.00;;;4.90;99.90;;;;;;6100207;23;20214;-79
2022/12/08 12:10:03;;;;;;;7.82;7.13;;;4.90;99.90;;;;;;6119083;23;20239;-79
2022/12/08 12:12:46;;;;;;;6.25;5.63;;;4.90;99.90;;;;;;6118146;23;20203;-75
2022/12/08 12:15:32;;;;;;;7.50;6.50;;;5.00;99.90;;;;;;6113510;23;20218;-75
2022/12/08 12:18:02;;;;;;;7.40;6.70;;;5.10;99.90;;;;;;6114356;23;20183;-75
2022/12/08 12:20:34;;;;;;;7.35;6.65;;;5.10;99.90;;;;;;6116529;23;20234;-79
2022/12/08 12:23:07;;;;;;;8.45;7.30;;;5.20;99.90;;;;;;6110872;23;20564;-79
2022/12/08 12:25:36;;;;;;;7.90;6.30;;;5.20;99.90;;;;;;6114494;23;20191;-79
2022/12/08 12:28:08;;;;;;;7.07;6.35;;;5.20;99.90;;;;;;6115124;23;20294;-79
2022/12/08 12:30:53;;;;;;;7.13;6.43;;;5.20;99.90;;;;;;6112559;23;20294;-79
2022/12/08 12:33:22;;;;;;;7.32;6.60;;;5.20;99.90;;;;;;6108562;23;20191;-79
2022/12/08 12:35:50;;;;;;;7.10;6.43;;;5.10;99.90;;;;;;6115172;23;20191;-79
2022/12/08 12:41:09;;;;;;;7.75;6.97;;;5.00;99.90;;;;;;6104897;23;20589;-79
2022/12/08 12:43:40;;;;;;;7.85;6.32;;;5.00;99.90;;;;;;6113589;23;20195;-79
2022/12/08 12:46:42;;;;;;;7.00;6.38;;;5.00;99.90;;;;;;6110583;23;20222;-78
2022/12/08 12:49:47;;;;;;;6.50;5.90;;;4.90;99.90;;;;;;6101544;23;20222;-79
2022/12/08 12:52:46;;;;;;;6.85;6.18;;;4.90;99.90;;;;;;6109177;23;20280;-79
2022/12/08 12:55:50;;;;;;;7.22;6.53;;;4.80;99.90;;;;;;6115542;23;20217;-80
2022/12/08 12:58:39;;;;;;;7.70;6.97;;;4.80;99.90;;;;;;6104675;23;20344;-80
2022/12/08 13:01:47;;;;;;;7.18;6.47;;;4.80;99.90;;;;;;6121065;23;20188;-80
2022/12/08 13:04:15;;;;;;;7.05;6.32;;;4.80;99.90;;;;;;6119652;23;20559;-80
2022/12/08 13:06:47;;;;;;;7.82;6.20;;;4.80;99.90;;;;;;6106941;23;20210;-80
2022/12/08 13:09:26;;;;;;;7.25;6.53;;;4.90;99.90;;;;;;6110973;23;20257;-80
2022/12/08 13:11:55;;;;;;;7.20;6.50;;;4.90;99.90;;;;;;6119543;23;20766;-80